sensor_id;sensor_type;location;lat;lon;timestamp;temperature;humidity
78767;SHT31;68092;51.982;5.680;2023-04-03T00:02:01;8.0;51.4
78767;SHT31;68092;51.982;5.680;2023-04-03T00:04:30;8.0;51.8
78767;SHT31;68092;51.982;5.680;2023-04-03T00:07:00;7.9;51.5
78767;SHT31;68092;51.982;5.680;2023-04-03T00:09:30;7.9;51.7
78767;SHT31;68092;51.982;5.680;2023-04-03T00:12:01;7.9;51.6
78767;SHT31;68092;51.982;5.680;2023-04-03T00:14:32;7.8;51.7
78767;SHT31;68092;51.982;5.680;2023-04-03T00:17:01;7.8;51.6
78767;SHT31;68092;51.982;5.680;2023-04-03T00:19:31;7.8;51.6
78767;SHT31;68092;51.982;5.680;2023-04-03T00:22:01;7.8;52.2
78767;SHT31;68092;51.982;5.680;2023-04-03T00:24:30;7.7;51.9
78767;SHT31;68092;51.982;5.680;2023-04-03T00:27:00;7.7;52.2
78767;SHT31;68092;51.982;5.680;2023-04-03T00:29:29;7.7;51.8
78767;SHT31;68092;51.982;5.680;2023-04-03T00:32:01;7.7;52.2
78767;SHT31;68092;51.982;5.680;2023-04-03T00:34:31;7.6;51.9
78767;SHT31;68092;51.982;5.680;2023-04-03T00:37:00;7.6;52.3
78767;SHT31;68092;51.982;5.680;2023-04-03T00:39:30;7.6;52.2
78767;SHT31;68092;51.982;5.680;2023-04-03T00:42:00;7.6;52.3
78767;SHT31;68092;51.982;5.680;2023-04-03T00:47:34;7.5;52.0
78767;SHT31;68092;51.982;5.680;2023-04-03T00:50:06;7.5;51.9
78767;SHT31;68092;51.982;5.680;2023-04-03T00:52:37;7.5;52.1
78767;SHT31;68092;51.982;5.680;2023-04-03T00:55:09;7.5;52.5
78767;SHT31;68092;51.982;5.680;2023-04-03T00:57:39;7.4;52.5
78767;SHT31;68092;51.982;5.680;2023-04-03T01:00:14;7.4;52.6
78767;SHT31;68092;51.982;5.680;2023-04-03T01:02:45;7.4;52.8
78767;SHT31;68092;51.982;5.680;2023-04-03T01:05:17;7.4;52.7
78767;SHT31;68092;51.982;5.680;2023-04-03T01:07:49;7.4;53.3
78767;SHT31;68092;51.982;5.680;2023-04-03T01:10:20;7.4;52.4
78767;SHT31;68092;51.982;5.680;2023-04-03T01:12:50;7.4;52.3
78767;SHT31;68092;51.982;5.680;2023-04-03T01:15:23;7.4;52.7
78767;SHT31;68092;51.982;5.680;2023-04-03T01:17:56;7.4;52.7
78767;SHT31;68092;51.982;5.680;2023-04-03T01:25:03;7.3;53.5
78767;SHT31;68092;51.982;5.680;2023-04-03T01:27:32;7.3;52.9
78767;SHT31;68092;51.982;5.680;2023-04-03T01:30:02;7.3;53.2
78767;SHT31;68092;51.982;5.680;2023-04-03T01:32:31;7.3;53.0
78767;SHT31;68092;51.982;5.680;2023-04-03T01:35:02;7.2;52.9
78767;SHT31;68092;51.982;5.680;2023-04-03T01:37:32;7.2;53.1
78767;SHT31;68092;51.982;5.680;2023-04-03T01:40:03;7.2;53.1
78767;SHT31;68092;51.982;5.680;2023-04-03T01:42:34;7.2;53.2
78767;SHT31;68092;51.982;5.680;2023-04-03T01:45:04;7.2;53.4
78767;SHT31;68092;51.982;5.680;2023-04-03T01:47:34;7.2;53.4
78767;SHT31;68092;51.982;5.680;2023-04-03T01:50:04;7.2;53.3
78767;SHT31;68092;51.982;5.680;2023-04-03T01:52:34;7.2;53.5
78767;SHT31;68092;51.982;5.680;2023-04-03T01:55:07;7.2;53.1
78767;SHT31;68092;51.982;5.680;2023-04-03T01:57:37;7.2;53.5
78767;SHT31;68092;51.982;5.680;2023-04-03T02:00:10;7.1;53.3
78767;SHT31;68092;51.982;5.680;2023-04-03T02:02:40;7.1;53.4
78767;SHT31;68092;51.982;5.680;2023-04-03T02:05:12;7.1;53.5
78767;SHT31;68092;51.982;5.680;2023-04-03T02:07:42;7.1;53.8
78767;SHT31;68092;51.982;5.680;2023-04-03T02:10:12;7.0;53.6
78767;SHT31;68092;51.982;5.680;2023-04-03T02:12:42;7.0;54.0
78767;SHT31;68092;51.982;5.680;2023-04-03T02:15:12;7.0;53.9
78767;SHT31;68092;51.982;5.680;2023-04-03T02:17:42;7.0;54.1
78767;SHT31;68092;51.982;5.680;2023-04-03T02:20:13;7.0;54.4
78767;SHT31;68092;51.982;5.680;2023-04-03T02:22:42;6.9;54.5
78767;SHT31;68092;51.982;5.680;2023-04-03T02:25:12;6.9;54.5
78767;SHT31;68092;51.982;5.680;2023-04-03T02:27:42;6.9;54.6
78767;SHT31;68092;51.982;5.680;2023-04-03T02:30:12;6.9;54.7
78767;SHT31;68092;51.982;5.680;2023-04-03T02:32:43;6.9;54.6
78767;SHT31;68092;51.982;5.680;2023-04-03T02:35:13;6.8;55.0
78767;SHT31;68092;51.982;5.680;2023-04-03T02:37:42;6.8;55.1
78767;SHT31;68092;51.982;5.680;2023-04-03T02:40:12;6.8;55.0
78767;SHT31;68092;51.982;5.680;2023-04-03T02:42:42;6.8;55.3
78767;SHT31;68092;51.982;5.680;2023-04-03T02:45:14;6.8;55.3
78767;SHT31;68092;51.982;5.680;2023-04-03T02:47:43;6.8;55.1
78767;SHT31;68092;51.982;5.680;2023-04-03T02:50:13;6.7;55.3
78767;SHT31;68092;51.982;5.680;2023-04-03T02:52:43;6.7;55.3
78767;SHT31;68092;51.982;5.680;2023-04-03T02:55:15;6.7;55.0
78767;SHT31;68092;51.982;5.680;2023-04-03T02:57:45;6.7;55.2
78767;SHT31;68092;51.982;5.680;2023-04-03T03:00:17;6.7;55.2
78767;SHT31;68092;51.982;5.680;2023-04-03T03:02:51;6.7;55.2
78767;SHT31;68092;51.982;5.680;2023-04-03T03:05:21;6.7;55.3
78767;SHT31;68092;51.982;5.680;2023-04-03T03:07:51;6.7;55.3
78767;SHT31;68092;51.982;5.680;2023-04-03T03:10:20;6.7;55.5
78767;SHT31;68092;51.982;5.680;2023-04-03T03:12:52;6.6;55.6
78767;SHT31;68092;51.982;5.680;2023-04-03T03:15:22;6.6;56.0
78767;SHT31;68092;51.982;5.680;2023-04-03T03:17:52;6.6;55.6
78767;SHT31;68092;51.982;5.680;2023-04-03T03:20:22;6.6;55.7
78767;SHT31;68092;51.982;5.680;2023-04-03T03:22:52;6.6;55.6
78767;SHT31;68092;51.982;5.680;2023-04-03T03:25:21;6.6;55.5
78767;SHT31;68092;51.982;5.680;2023-04-03T03:27:51;6.6;55.9
78767;SHT31;68092;51.982;5.680;2023-04-03T03:30:23;6.5;56.0
78767;SHT31;68092;51.982;5.680;2023-04-03T03:32:53;6.5;56.1
78767;SHT31;68092;51.982;5.680;2023-04-03T03:35:23;6.5;56.2
78767;SHT31;68092;51.982;5.680;2023-04-03T03:37:53;6.5;56.2
78767;SHT31;68092;51.982;5.680;2023-04-03T03:40:22;6.5;56.2
78767;SHT31;68092;51.982;5.680;2023-04-03T03:42:54;6.5;56.1
78767;SHT31;68092;51.982;5.680;2023-04-03T03:45:23;6.4;56.1
78767;SHT31;68092;51.982;5.680;2023-04-03T03:47:53;6.4;56.5
78767;SHT31;68092;51.982;5.680;2023-04-03T03:50:23;6.4;56.7
78767;SHT31;68092;51.982;5.680;2023-04-03T03:52:52;6.4;56.4
78767;SHT31;68092;51.982;5.680;2023-04-03T03:55:22;6.4;56.5
78767;SHT31;68092;51.982;5.680;2023-04-03T03:57:52;6.3;56.4
78767;SHT31;68092;51.982;5.680;2023-04-03T04:00:23;6.3;56.9
78767;SHT31;68092;51.982;5.680;2023-04-03T04:02:53;6.3;56.7
78767;SHT31;68092;51.982;5.680;2023-04-03T04:05:23;6.3;56.6
78767;SHT31;68092;51.982;5.680;2023-04-03T04:07:52;6.3;56.5
78767;SHT31;68092;51.982;5.680;2023-04-03T04:10:22;6.3;56.5
78767;SHT31;68092;51.982;5.680;2023-04-03T04:12:51;6.3;56.7
78767;SHT31;68092;51.982;5.680;2023-04-03T04:15:21;6.3;56.8
78767;SHT31;68092;51.982;5.680;2023-04-03T04:17:52;6.2;56.5
78767;SHT31;68092;51.982;5.680;2023-04-03T04:20:24;6.2;56.8
78767;SHT31;68092;51.982;5.680;2023-04-03T04:22:54;6.2;56.9
78767;SHT31;68092;51.982;5.680;2023-04-03T04:25:24;6.2;56.6
78767;SHT31;68092;51.982;5.680;2023-04-03T04:27:53;6.2;56.5
78767;SHT31;68092;51.982;5.680;2023-04-03T04:30:23;6.2;56.7
78767;SHT31;68092;51.982;5.680;2023-04-03T04:32:53;6.2;56.8
78767;SHT31;68092;51.982;5.680;2023-04-03T04:35:23;6.2;56.6
78767;SHT31;68092;51.982;5.680;2023-04-03T04:37:53;6.2;56.9
78767;SHT31;68092;51.982;5.680;2023-04-03T04:40:23;6.2;56.7
78767;SHT31;68092;51.982;5.680;2023-04-03T04:42:53;6.1;56.8
78767;SHT31;68092;51.982;5.680;2023-04-03T04:45:23;6.1;56.5
78767;SHT31;68092;51.982;5.680;2023-04-03T04:47:54;6.1;56.9
78767;SHT31;68092;51.982;5.680;2023-04-03T04:50:24;6.1;57.0
78767;SHT31;68092;51.982;5.680;2023-04-03T04:52:53;6.1;56.7
78767;SHT31;68092;51.982;5.680;2023-04-03T04:55:23;6.1;57.1
78767;SHT31;68092;51.982;5.680;2023-04-03T04:57:53;6.1;56.8
78767;SHT31;68092;51.982;5.680;2023-04-03T05:00:23;6.1;57.0
78767;SHT31;68092;51.982;5.680;2023-04-03T05:02:53;6.0;57.0
78767;SHT31;68092;51.982;5.680;2023-04-03T05:05:24;6.0;57.0
78767;SHT31;68092;51.982;5.680;2023-04-03T05:07:54;6.0;57.4
78767;SHT31;68092;51.982;5.680;2023-04-03T05:10:26;6.0;57.1
78767;SHT31;68092;51.982;5.680;2023-04-03T05:12:56;5.9;57.1
78767;SHT31;68092;51.982;5.680;2023-04-03T05:15:25;5.9;57.2
78767;SHT31;68092;51.982;5.680;2023-04-03T05:17:55;5.9;57.1
78767;SHT31;68092;51.982;5.680;2023-04-03T05:20:25;5.9;57.4
78767;SHT31;68092;51.982;5.680;2023-04-03T05:22:56;5.9;57.5
78767;SHT31;68092;51.982;5.680;2023-04-03T05:25:26;5.9;57.2
78767;SHT31;68092;51.982;5.680;2023-04-03T05:27:55;5.8;57.4
78767;SHT31;68092;51.982;5.680;2023-04-03T05:30:25;5.8;57.2
78767;SHT31;68092;51.982;5.680;2023-04-03T05:32:55;5.8;57.5
78767;SHT31;68092;51.982;5.680;2023-04-03T05:35:24;5.8;57.2
78767;SHT31;68092;51.982;5.680;2023-04-03T05:37:54;5.8;57.4
78767;SHT31;68092;51.982;5.680;2023-04-03T05:40:25;5.8;57.6
78767;SHT31;68092;51.982;5.680;2023-04-03T05:42:54;5.8;57.5
78767;SHT31;68092;51.982;5.680;2023-04-03T05:45:26;5.8;58.0
78767;SHT31;68092;51.982;5.680;2023-04-03T05:47:55;5.8;57.9
78767;SHT31;68092;51.982;5.680;2023-04-03T05:50:25;5.7;57.9
78767;SHT31;68092;51.982;5.680;2023-04-03T05:52:57;5.7;57.8
78767;SHT31;68092;51.982;5.680;2023-04-03T05:55:27;5.7;58.0
78767;SHT31;68092;51.982;5.680;2023-04-03T05:57:57;5.7;57.6
78767;SHT31;68092;51.982;5.680;2023-04-03T06:00:26;5.7;57.9
78767;SHT31;68092;51.982;5.680;2023-04-03T06:02:56;5.7;58.0
78767;SHT31;68092;51.982;5.680;2023-04-03T06:05:27;5.7;58.1
78767;SHT31;68092;51.982;5.680;2023-04-03T06:07:57;5.7;58.3
78767;SHT31;68092;51.982;5.680;2023-04-03T06:10:27;5.7;58.3
78767;SHT31;68092;51.982;5.680;2023-04-03T06:12:57;5.7;58.3
78767;SHT31;68092;51.982;5.680;2023-04-03T06:15:26;5.7;58.0
78767;SHT31;68092;51.982;5.680;2023-04-03T06:17:56;5.7;58.0
78767;SHT31;68092;51.982;5.680;2023-04-03T06:20:26;5.7;58.1
78767;SHT31;68092;51.982;5.680;2023-04-03T06:22:56;5.7;58.6
78767;SHT31;68092;51.982;5.680;2023-04-03T06:25:25;5.7;58.0
78767;SHT31;68092;51.982;5.680;2023-04-03T06:27:55;5.7;58.5
78767;SHT31;68092;51.982;5.680;2023-04-03T06:30:24;5.7;58.5
78767;SHT31;68092;51.982;5.680;2023-04-03T06:32:54;5.7;58.4
78767;SHT31;68092;51.982;5.680;2023-04-03T06:35:24;5.7;58.7
78767;SHT31;68092;51.982;5.680;2023-04-03T06:37:56;5.7;58.8
78767;SHT31;68092;51.982;5.680;2023-04-03T06:40:27;5.8;58.9
78767;SHT31;68092;51.982;5.680;2023-04-03T06:42:57;5.8;58.5
78767;SHT31;68092;51.982;5.680;2023-04-03T06:45:27;5.8;58.4
78767;SHT31;68092;51.982;5.680;2023-04-03T06:47:57;5.8;58.3
78767;SHT31;68092;51.982;5.680;2023-04-03T06:50:27;5.8;58.6
78767;SHT31;68092;51.982;5.680;2023-04-03T06:52:57;5.8;58.3
78767;SHT31;68092;51.982;5.680;2023-04-03T06:55:28;5.8;58.1
78767;SHT31;68092;51.982;5.680;2023-04-03T06:57:57;5.9;58.5
78767;SHT31;68092;51.982;5.680;2023-04-03T07:00:28;5.9;58.1
78767;SHT31;68092;51.982;5.680;2023-04-03T07:02:58;5.9;58.2
78767;SHT31;68092;51.982;5.680;2023-04-03T07:05:29;6.0;58.6
78767;SHT31;68092;51.982;5.680;2023-04-03T07:07:58;6.0;58.0
78767;SHT31;68092;51.982;5.680;2023-04-03T07:10:28;6.0;57.8
78767;SHT31;68092;51.982;5.680;2023-04-03T07:12:59;6.1;58.4
78767;SHT31;68092;51.982;5.680;2023-04-03T07:15:29;6.1;58.2
78767;SHT31;68092;51.982;5.680;2023-04-03T07:17:59;6.2;58.4
78767;SHT31;68092;51.982;5.680;2023-04-03T07:20:29;6.3;57.7
78767;SHT31;68092;51.982;5.680;2023-04-03T07:22:58;6.3;57.8
78767;SHT31;68092;51.982;5.680;2023-04-03T07:25:29;6.4;57.5
78767;SHT31;68092;51.982;5.680;2023-04-03T07:27:59;6.4;57.3
78767;SHT31;68092;51.982;5.680;2023-04-03T07:30:29;6.5;56.8
78767;SHT31;68092;51.982;5.680;2023-04-03T07:32:59;6.6;57.2
78767;SHT31;68092;51.982;5.680;2023-04-03T07:35:29;6.6;57.1
78767;SHT31;68092;51.982;5.680;2023-04-03T07:37:58;6.7;57.1
78767;SHT31;68092;51.982;5.680;2023-04-03T07:40:29;6.7;56.7
78767;SHT31;68092;51.982;5.680;2023-04-03T07:42:58;6.8;55.1
78767;SHT31;68092;51.982;5.680;2023-04-03T07:45:28;6.8;55.9
78767;SHT31;68092;51.982;5.680;2023-04-03T07:47:58;6.9;55.6
78767;SHT31;68092;51.982;5.680;2023-04-03T07:50:29;7.0;55.7
78767;SHT31;68092;51.982;5.680;2023-04-03T07:52:59;7.0;55.2
78767;SHT31;68092;51.982;5.680;2023-04-03T07:55:29;7.1;55.8
78767;SHT31;68092;51.982;5.680;2023-04-03T07:57:59;7.2;55.8
78767;SHT31;68092;51.982;5.680;2023-04-03T08:00:29;7.3;54.6
78767;SHT31;68092;51.982;5.680;2023-04-03T08:02:59;7.3;53.8
78767;SHT31;68092;51.982;5.680;2023-04-03T08:05:29;7.4;53.6
78767;SHT31;68092;51.982;5.680;2023-04-03T08:07:58;7.5;52.9
78767;SHT31;68092;51.982;5.680;2023-04-03T08:10:30;7.6;52.4
78767;SHT31;68092;51.982;5.680;2023-04-03T08:13:01;7.7;51.9
78767;SHT31;68092;51.982;5.680;2023-04-03T08:15:31;7.8;50.7
78767;SHT31;68092;51.982;5.680;2023-04-03T08:18:02;7.9;50.2
78767;SHT31;68092;51.982;5.680;2023-04-03T08:20:32;8.0;50.2
78767;SHT31;68092;51.982;5.680;2023-04-03T08:23:02;8.1;47.3
78767;SHT31;68092;51.982;5.680;2023-04-03T08:25:33;8.1;49.3
78767;SHT31;68092;51.982;5.680;2023-04-03T08:28:03;8.3;48.5
78767;SHT31;68092;51.982;5.680;2023-04-03T08:30:39;8.4;48.3
78767;SHT31;68092;51.982;5.680;2023-04-03T08:33:10;8.5;46.5
78767;SHT31;68092;51.982;5.680;2023-04-03T08:35:41;8.6;44.8
78767;SHT31;68092;51.982;5.680;2023-04-03T08:38:13;8.7;44.1
78767;SHT31;68092;51.982;5.680;2023-04-03T08:40:45;8.8;45.6
78767;SHT31;68092;51.982;5.680;2023-04-03T08:43:30;8.9;44.4
78767;SHT31;68092;51.982;5.680;2023-04-03T08:46:08;9.0;44.5
78767;SHT31;68092;51.982;5.680;2023-04-03T08:48:43;9.2;42.9
78767;SHT31;68092;51.982;5.680;2023-04-03T08:51:15;9.3;44.5
78767;SHT31;68092;51.982;5.680;2023-04-03T08:53:54;9.5;43.0
78767;SHT31;68092;51.982;5.680;2023-04-03T08:56:24;9.6;41.3
78767;SHT31;68092;51.982;5.680;2023-04-03T08:58:57;9.8;42.5
78767;SHT31;68092;51.982;5.680;2023-04-03T09:01:36;9.9;40.9
78767;SHT31;68092;51.982;5.680;2023-04-03T09:04:15;10.1;39.7
78767;SHT31;68092;51.982;5.680;2023-04-03T09:06:51;10.3;38.7
78767;SHT31;68092;51.982;5.680;2023-04-03T09:09:33;10.4;38.3
78767;SHT31;68092;51.982;5.680;2023-04-03T09:12:15;10.6;38.3
78767;SHT31;68092;51.982;5.680;2023-04-03T09:14:53;10.7;37.4
78767;SHT31;68092;51.982;5.680;2023-04-03T09:17:38;10.9;35.4
78767;SHT31;68092;51.982;5.680;2023-04-03T09:20:19;11.1;35.8
78767;SHT31;68092;51.982;5.680;2023-04-03T09:22:52;11.2;36.0
78767;SHT31;68092;51.982;5.680;2023-04-03T09:25:27;11.3;34.6
78767;SHT31;68092;51.982;5.680;2023-04-03T09:28:00;11.5;33.9
78767;SHT31;68092;51.982;5.680;2023-04-03T09:30:30;11.6;33.7
78767;SHT31;68092;51.982;5.680;2023-04-03T09:33:00;11.7;33.2
78767;SHT31;68092;51.982;5.680;2023-04-03T09:35:33;11.9;31.6
78767;SHT31;68092;51.982;5.680;2023-04-03T09:38:18;12.0;32.5
78767;SHT31;68092;51.982;5.680;2023-04-03T09:40:50;12.2;33.4
78767;SHT31;68092;51.982;5.680;2023-04-03T09:43:26;12.4;31.8
78767;SHT31;68092;51.982;5.680;2023-04-03T09:46:23;12.5;31.6
78767;SHT31;68092;51.982;5.680;2023-04-03T09:48:56;12.7;30.8
78767;SHT31;68092;51.982;5.680;2023-04-03T09:51:28;12.9;30.3
78767;SHT31;68092;51.982;5.680;2023-04-03T09:53:58;13.1;29.5
78767;SHT31;68092;51.982;5.680;2023-04-03T09:56:30;13.2;30.8
78767;SHT31;68092;51.982;5.680;2023-04-03T09:59:13;13.4;31.5
78767;SHT31;68092;51.982;5.680;2023-04-03T10:01:58;13.6;30.1
78767;SHT31;68092;51.982;5.680;2023-04-03T10:04:40;13.9;30.3
78767;SHT31;68092;51.982;5.680;2023-04-03T10:07:29;14.1;28.8
78767;SHT31;68092;51.982;5.680;2023-04-03T10:10:14;14.3;28.4
78767;SHT31;68092;51.982;5.680;2023-04-03T10:12:36;14.4;28.5
78767;SHT31;68092;51.982;5.680;2023-04-03T10:15:14;14.6;28.8
78767;SHT31;68092;51.982;5.680;2023-04-03T10:17:54;14.7;28.9
78767;SHT31;68092;51.982;5.680;2023-04-03T10:20:35;14.9;28.3
78767;SHT31;68092;51.982;5.680;2023-04-03T10:23:19;15.0;28.2
78767;SHT31;68092;51.982;5.680;2023-04-03T10:26:02;15.2;26.3
78767;SHT31;68092;51.982;5.680;2023-04-03T10:28:47;15.3;27.7
78767;SHT31;68092;51.982;5.680;2023-04-03T10:31:25;15.4;28.0
78767;SHT31;68092;51.982;5.680;2023-04-03T10:34:05;15.6;28.0
78767;SHT31;68092;51.982;5.680;2023-04-03T10:36:41;15.8;27.7
78767;SHT31;68092;51.982;5.680;2023-04-03T10:39:23;16.0;27.7
78767;SHT31;68092;51.982;5.680;2023-04-03T10:42:06;16.2;29.0
78767;SHT31;68092;51.982;5.680;2023-04-03T10:44:51;16.4;28.0
78767;SHT31;68092;51.982;5.680;2023-04-03T10:47:28;16.7;28.4
78767;SHT31;68092;51.982;5.680;2023-04-03T10:50:12;16.9;28.2
78767;SHT31;68092;51.982;5.680;2023-04-03T10:52:50;17.1;25.6
78767;SHT31;68092;51.982;5.680;2023-04-03T10:55:34;17.3;25.5
78767;SHT31;68092;51.982;5.680;2023-04-03T10:58:06;17.4;26.3
78767;SHT31;68092;51.982;5.680;2023-04-03T11:00:42;17.4;27.0
78767;SHT31;68092;51.982;5.680;2023-04-03T11:03:21;17.6;27.5
78767;SHT31;68092;51.982;5.680;2023-04-03T11:05:53;17.7;26.3
78767;SHT31;68092;51.982;5.680;2023-04-03T11:08:29;17.8;25.7
78767;SHT31;68092;51.982;5.680;2023-04-03T11:11:09;17.9;25.6
78767;SHT31;68092;51.982;5.680;2023-04-03T11:13:45;18.0;26.7
78767;SHT31;68092;51.982;5.680;2023-04-03T11:16:21;18.2;25.4
78767;SHT31;68092;51.982;5.680;2023-04-03T11:18:58;18.3;26.3
78767;SHT31;68092;51.982;5.680;2023-04-03T11:21:40;18.4;27.4
78767;SHT31;68092;51.982;5.680;2023-04-03T11:24:20;18.5;27.4
78767;SHT31;68092;51.982;5.680;2023-04-03T11:26:53;18.6;25.4
78767;SHT31;68092;51.982;5.680;2023-04-03T11:29:27;18.8;26.9
78767;SHT31;68092;51.982;5.680;2023-04-03T11:32:11;18.9;25.0
78767;SHT31;68092;51.982;5.680;2023-04-03T11:34:48;19.0;24.5
78767;SHT31;68092;51.982;5.680;2023-04-03T11:37:28;19.1;25.3
78767;SHT31;68092;51.982;5.680;2023-04-03T11:40:04;19.2;25.9
78767;SHT31;68092;51.982;5.680;2023-04-03T11:42:38;19.3;25.4
78767;SHT31;68092;51.982;5.680;2023-04-03T11:45:31;19.4;26.0
78767;SHT31;68092;51.982;5.680;2023-04-03T11:48:04;19.6;25.8
78767;SHT31;68092;51.982;5.680;2023-04-03T11:50:45;19.8;22.1
78767;SHT31;68092;51.982;5.680;2023-04-03T11:53:40;20.0;25.0
78767;SHT31;68092;51.982;5.680;2023-04-03T11:56:29;20.1;24.4
78767;SHT31;68092;51.982;5.680;2023-04-03T11:59:23;20.2;24.4
78767;SHT31;68092;51.982;5.680;2023-04-03T12:01:55;20.3;24.6
78767;SHT31;68092;51.982;5.680;2023-04-03T12:04:27;20.4;24.9
78767;SHT31;68092;51.982;5.680;2023-04-03T12:07:33;20.5;24.9
78767;SHT31;68092;51.982;5.680;2023-04-03T12:10:18;20.7;23.5
78767;SHT31;68092;51.982;5.680;2023-04-03T12:12:59;20.9;23.9
78767;SHT31;68092;51.982;5.680;2023-04-03T12:16:03;21.0;23.9
78767;SHT31;68092;51.982;5.680;2023-04-03T12:18:48;21.3;24.4
78767;SHT31;68092;51.982;5.680;2023-04-03T12:21:22;21.5;23.2
78767;SHT31;68092;51.982;5.680;2023-04-03T12:24:03;21.7;23.8
78767;SHT31;68092;51.982;5.680;2023-04-03T12:26:43;21.9;23.7
78767;SHT31;68092;51.982;5.680;2023-04-03T12:29:20;22.0;23.8
78767;SHT31;68092;51.982;5.680;2023-04-03T12:32:09;22.2;22.3
78767;SHT31;68092;51.982;5.680;2023-04-03T12:34:58;22.3;23.2
78767;SHT31;68092;51.982;5.680;2023-04-03T12:40:45;22.6;22.4
78767;SHT31;68092;51.982;5.680;2023-04-03T12:43:25;22.7;21.7
78767;SHT31;68092;51.982;5.680;2023-04-03T12:46:03;22.8;22.8
78767;SHT31;68092;51.982;5.680;2023-04-03T12:48:38;22.9;22.3
78767;SHT31;68092;51.982;5.680;2023-04-03T12:51:09;22.9;22.2
78767;SHT31;68092;51.982;5.680;2023-04-03T12:53:44;23.0;22.9
78767;SHT31;68092;51.982;5.680;2023-04-03T12:56:23;23.0;22.4
78767;SHT31;68092;51.982;5.680;2023-04-03T12:58:55;23.0;22.5
78767;SHT31;68092;51.982;5.680;2023-04-03T13:01:27;23.1;22.0
78767;SHT31;68092;51.982;5.680;2023-04-03T13:03:58;23.2;22.0
78767;SHT31;68092;51.982;5.680;2023-04-03T13:06:32;23.2;22.4
78767;SHT31;68092;51.982;5.680;2023-04-03T13:09:20;23.3;21.8
78767;SHT31;68092;51.982;5.680;2023-04-03T13:11:59;23.4;21.2
78767;SHT31;68092;51.982;5.680;2023-04-03T13:14:31;23.5;22.2
78767;SHT31;68092;51.982;5.680;2023-04-03T13:17:09;23.5;21.8
78767;SHT31;68092;51.982;5.680;2023-04-03T13:19:41;23.6;20.0
78767;SHT31;68092;51.982;5.680;2023-04-03T13:22:24;23.7;19.6
78767;SHT31;68092;51.982;5.680;2023-04-03T13:24:59;23.7;20.7
78767;SHT31;68092;51.982;5.680;2023-04-03T13:27:34;23.7;20.8
78767;SHT31;68092;51.982;5.680;2023-04-03T13:30:19;23.8;20.8
78767;SHT31;68092;51.982;5.680;2023-04-03T13:32:53;23.8;19.6
78767;SHT31;68092;51.982;5.680;2023-04-03T13:35:30;23.8;20.1
78767;SHT31;68092;51.982;5.680;2023-04-03T13:38:05;23.7;20.6
78767;SHT31;68092;51.982;5.680;2023-04-03T13:40:48;23.7;19.1
78767;SHT31;68092;51.982;5.680;2023-04-03T13:43:21;23.7;19.0
78767;SHT31;68092;51.982;5.680;2023-04-03T13:45:58;23.6;20.7
78767;SHT31;68092;51.982;5.680;2023-04-03T13:48:39;23.6;21.1
78767;SHT31;68092;51.982;5.680;2023-04-03T13:51:21;23.6;20.1
78767;SHT31;68092;51.982;5.680;2023-04-03T13:53:55;23.6;21.7
78767;SHT31;68092;51.982;5.680;2023-04-03T13:56:31;23.6;21.4
78767;SHT31;68092;51.982;5.680;2023-04-03T13:59:22;23.6;21.2
78767;SHT31;68092;51.982;5.680;2023-04-03T14:02:13;23.7;21.2
78767;SHT31;68092;51.982;5.680;2023-04-03T14:04:50;23.7;21.7
78767;SHT31;68092;51.982;5.680;2023-04-03T14:07:22;23.7;21.3
78767;SHT31;68092;51.982;5.680;2023-04-03T14:09:53;23.7;21.2
78767;SHT31;68092;51.982;5.680;2023-04-03T14:12:26;23.7;20.9
78767;SHT31;68092;51.982;5.680;2023-04-03T14:14:57;23.7;21.3
78767;SHT31;68092;51.982;5.680;2023-04-03T14:17:29;23.7;21.8
78767;SHT31;68092;51.982;5.680;2023-04-03T14:20:00;23.8;20.8
78767;SHT31;68092;51.982;5.680;2023-04-03T14:22:32;23.8;19.9
78767;SHT31;68092;51.982;5.680;2023-04-03T14:25:08;23.8;21.9
78767;SHT31;68092;51.982;5.680;2023-04-03T14:27:40;23.9;21.0
78767;SHT31;68092;51.982;5.680;2023-04-03T14:30:15;23.9;21.7
78767;SHT31;68092;51.982;5.680;2023-04-03T14:32:45;23.9;20.7
78767;SHT31;68092;51.982;5.680;2023-04-03T14:35:16;23.9;21.2
78767;SHT31;68092;51.982;5.680;2023-04-03T14:37:47;23.9;20.5
78767;SHT31;68092;51.982;5.680;2023-04-03T14:40:20;23.9;20.3
78767;SHT31;68092;51.982;5.680;2023-04-03T14:42:50;23.9;20.6
78767;SHT31;68092;51.982;5.680;2023-04-03T14:45:22;23.9;20.8
78767;SHT31;68092;51.982;5.680;2023-04-03T14:47:55;23.9;20.7
78767;SHT31;68092;51.982;5.680;2023-04-03T14:50:27;23.9;20.5
78767;SHT31;68092;51.982;5.680;2023-04-03T14:52:59;23.9;21.0
78767;SHT31;68092;51.982;5.680;2023-04-03T14:55:29;23.9;21.0
78767;SHT31;68092;51.982;5.680;2023-04-03T14:58:02;23.9;21.0
78767;SHT31;68092;51.982;5.680;2023-04-03T15:00:31;23.9;20.5
78767;SHT31;68092;51.982;5.680;2023-04-03T15:03:01;23.9;20.6
78767;SHT31;68092;51.982;5.680;2023-04-03T15:05:31;23.8;21.9
78767;SHT31;68092;51.982;5.680;2023-04-03T15:08:01;23.8;21.9
78767;SHT31;68092;51.982;5.680;2023-04-03T15:10:32;23.8;20.8
78767;SHT31;68092;51.982;5.680;2023-04-03T15:13:02;23.8;21.2
78767;SHT31;68092;51.982;5.680;2023-04-03T15:15:34;23.7;20.8
78767;SHT31;68092;51.982;5.680;2023-04-03T15:18:05;23.7;21.4
78767;SHT31;68092;51.982;5.680;2023-04-03T15:20:35;23.6;21.8
78767;SHT31;68092;51.982;5.680;2023-04-03T15:23:04;23.6;21.7
78767;SHT31;68092;51.982;5.680;2023-04-03T15:25:37;23.6;21.2
78767;SHT31;68092;51.982;5.680;2023-04-03T15:28:10;23.6;20.9
78767;SHT31;68092;51.982;5.680;2023-04-03T15:30:42;23.5;21.2
78767;SHT31;68092;51.982;5.680;2023-04-03T15:33:11;23.5;22.1
78767;SHT31;68092;51.982;5.680;2023-04-03T15:35:43;23.4;21.6
78767;SHT31;68092;51.982;5.680;2023-04-03T15:38:13;23.3;21.2
78767;SHT31;68092;51.982;5.680;2023-04-03T15:40:42;23.2;21.3
78767;SHT31;68092;51.982;5.680;2023-04-03T15:43:15;23.1;21.7
78767;SHT31;68092;51.982;5.680;2023-04-03T15:45:45;23.1;21.4
78767;SHT31;68092;51.982;5.680;2023-04-03T15:48:16;23.0;21.4
78767;SHT31;68092;51.982;5.680;2023-04-03T15:50:48;22.9;20.8
78767;SHT31;68092;51.982;5.680;2023-04-03T15:53:19;22.8;20.8
78767;SHT31;68092;51.982;5.680;2023-04-03T15:55:49;22.7;20.8
78767;SHT31;68092;51.982;5.680;2023-04-03T15:58:19;22.6;22.4
78767;SHT31;68092;51.982;5.680;2023-04-03T16:00:48;22.5;21.8
78767;SHT31;68092;51.982;5.680;2023-04-03T16:03:20;22.4;21.9
78767;SHT31;68092;51.982;5.680;2023-04-03T16:05:51;22.3;21.7
78767;SHT31;68092;51.982;5.680;2023-04-03T16:08:22;22.1;21.7
78767;SHT31;68092;51.982;5.680;2023-04-03T16:10:52;22.0;21.8
78767;SHT31;68092;51.982;5.680;2023-04-03T16:13:21;21.8;23.1
78767;SHT31;68092;51.982;5.680;2023-04-03T16:15:51;21.7;22.7
78767;SHT31;68092;51.982;5.680;2023-04-03T16:18:21;21.5;21.7
78767;SHT31;68092;51.982;5.680;2023-04-03T16:20:51;21.3;22.9
78767;SHT31;68092;51.982;5.680;2023-04-03T16:23:22;21.1;23.0
78767;SHT31;68092;51.982;5.680;2023-04-03T16:25:51;20.9;22.4
78767;SHT31;68092;51.982;5.680;2023-04-03T16:28:23;20.6;22.5
78767;SHT31;68092;51.982;5.680;2023-04-03T16:30:54;20.4;23.5
78767;SHT31;68092;51.982;5.680;2023-04-03T16:33:24;20.1;23.4
78767;SHT31;68092;51.982;5.680;2023-04-03T16:35:54;19.9;23.9
78767;SHT31;68092;51.982;5.680;2023-04-03T16:38:24;19.8;23.8
78767;SHT31;68092;51.982;5.680;2023-04-03T16:40:53;19.6;24.3
78767;SHT31;68092;51.982;5.680;2023-04-03T16:43:26;19.4;24.3
78767;SHT31;68092;51.982;5.680;2023-04-03T16:45:57;19.2;24.8
78767;SHT31;68092;51.982;5.680;2023-04-03T16:48:28;19.0;25.3
78767;SHT31;68092;51.982;5.680;2023-04-03T16:51:01;18.9;25.6
78767;SHT31;68092;51.982;5.680;2023-04-03T16:53:30;18.7;25.8
78767;SHT31;68092;51.982;5.680;2023-04-03T16:56:00;18.6;26.7
78767;SHT31;68092;51.982;5.680;2023-04-03T16:58:30;18.5;26.7